sensor_id;sensor_type;location;lat;lon;timestamp;temperature;humidity
55083;DHT22;40978;52.850;6.506;2023-07-22T00:00:55;13.30;99.90
55083;DHT22;40978;52.850;6.506;2023-07-22T00:03:21;13.30;99.90
55083;DHT22;40978;52.850;6.506;2023-07-22T00:05:48;13.30;99.90
55083;DHT22;40978;52.850;6.506;2023-07-22T00:08:14;13.30;99.90
55083;DHT22;40978;52.850;6.506;2023-07-22T00:10:42;13.20;99.90
55083;DHT22;40978;52.850;6.506;2023-07-22T00:13:08;13.20;99.90
55083;DHT22;40978;52.850;6.506;2023-07-22T00:15:34;13.20;99.90
55083;DHT22;40978;52.850;6.506;2023-07-22T00:18:00;13.10;99.90
55083;DHT22;40978;52.850;6.506;2023-07-22T00:20:26;13.10;99.90
55083;DHT22;40978;52.850;6.506;2023-07-22T00:22:52;13.00;99.90
55083;DHT22;40978;52.850;6.506;2023-07-22T00:25:18;13.00;99.90
55083;DHT22;40978;52.850;6.506;2023-07-22T00:27:44;12.90;99.90
55083;DHT22;40978;52.850;6.506;2023-07-22T00:30:09;12.90;99.90
55083;DHT22;40978;52.850;6.506;2023-07-22T00:32:36;12.80;99.90
55083;DHT22;40978;52.850;6.506;2023-07-22T00:35:06;12.80;99.90
55083;DHT22;40978;52.850;6.506;2023-07-22T00:37:32;12.70;99.90
55083;DHT22;40978;52.850;6.506;2023-07-22T00:39:58;12.70;99.90
55083;DHT22;40978;52.850;6.506;2023-07-22T00:42:24;12.60;99.90
55083;DHT22;40978;52.850;6.506;2023-07-22T00:44:50;12.60;99.90
55083;DHT22;40978;52.850;6.506;2023-07-22T00:47:16;12.60;99.90
55083;DHT22;40978;52.850;6.506;2023-07-22T00:49:43;12.50;99.90
55083;DHT22;40978;52.850;6.506;2023-07-22T00:52:09;12.50;99.90
55083;DHT22;40978;52.850;6.506;2023-07-22T00:54:35;12.50;99.90
55083;DHT22;40978;52.850;6.506;2023-07-22T00:57:01;12.40;99.90
55083;DHT22;40978;52.850;6.506;2023-07-22T00:59:27;12.40;99.90
55083;DHT22;40978;52.850;6.506;2023-07-22T01:01:53;12.30;99.90
55083;DHT22;40978;52.850;6.506;2023-07-22T01:04:22;12.30;99.90
55083;DHT22;40978;52.850;6.506;2023-07-22T01:06:49;12.30;99.90
55083;DHT22;40978;52.850;6.506;2023-07-22T01:09:18;12.30;99.90
55083;DHT22;40978;52.850;6.506;2023-07-22T01:11:44;12.30;99.90
55083;DHT22;40978;52.850;6.506;2023-07-22T01:14:10;12.30;99.90
55083;DHT22;40978;52.850;6.506;2023-07-22T01:16:36;12.30;99.90
55083;DHT22;40978;52.850;6.506;2023-07-22T01:19:03;12.30;99.90
55083;DHT22;40978;52.850;6.506;2023-07-22T01:21:31;12.30;99.90
55083;DHT22;40978;52.850;6.506;2023-07-22T01:23:58;12.30;99.90
55083;DHT22;40978;52.850;6.506;2023-07-22T01:26:24;12.30;99.90
55083;DHT22;40978;52.850;6.506;2023-07-22T01:28:49;12.40;99.90
55083;DHT22;40978;52.850;6.506;2023-07-22T01:31:15;12.40;99.90
55083;DHT22;40978;52.850;6.506;2023-07-22T01:33:41;12.30;99.90
55083;DHT22;40978;52.850;6.506;2023-07-22T01:36:06;12.30;99.90
55083;DHT22;40978;52.850;6.506;2023-07-22T01:38:33;12.20;99.90
55083;DHT22;40978;52.850;6.506;2023-07-22T01:40:59;12.30;99.90
55083;DHT22;40978;52.850;6.506;2023-07-22T01:43:25;12.20;99.90
55083;DHT22;40978;52.850;6.506;2023-07-22T01:45:51;12.20;99.90
55083;DHT22;40978;52.850;6.506;2023-07-22T01:48:17;12.20;99.90
55083;DHT22;40978;52.850;6.506;2023-07-22T01:50:43;12.10;99.90
55083;DHT22;40978;52.850;6.506;2023-07-22T01:53:08;12.10;99.90
55083;DHT22;40978;52.850;6.506;2023-07-22T01:55:34;12.10;99.90
55083;DHT22;40978;52.850;6.506;2023-07-22T01:58:00;12.10;99.90
55083;DHT22;40978;52.850;6.506;2023-07-22T02:00:26;12.10;99.90
55083;DHT22;40978;52.850;6.506;2023-07-22T02:02:52;12.00;99.90
55083;DHT22;40978;52.850;6.506;2023-07-22T02:05:18;12.00;99.90
55083;DHT22;40978;52.850;6.506;2023-07-22T02:07:43;12.00;99.90
55083;DHT22;40978;52.850;6.506;2023-07-22T02:10:09;11.90;99.90
55083;DHT22;40978;52.850;6.506;2023-07-22T02:12:35;11.90;99.90
55083;DHT22;40978;52.850;6.506;2023-07-22T02:15:01;11.80;99.90
55083;DHT22;40978;52.850;6.506;2023-07-22T02:17:28;11.80;99.90
55083;DHT22;40978;52.850;6.506;2023-07-22T02:19:54;11.80;99.90
55083;DHT22;40978;52.850;6.506;2023-07-22T02:22:20;11.80;99.90
55083;DHT22;40978;52.850;6.506;2023-07-22T02:24:46;11.80;99.90
55083;DHT22;40978;52.850;6.506;2023-07-22T02:27:11;11.80;99.90
55083;DHT22;40978;52.850;6.506;2023-07-22T02:29:37;11.80;99.90
55083;DHT22;40978;52.850;6.506;2023-07-22T02:32:03;11.80;99.90
55083;DHT22;40978;52.850;6.506;2023-07-22T02:34:29;11.80;99.90
55083;DHT22;40978;52.850;6.506;2023-07-22T02:36:54;11.80;99.90
55083;DHT22;40978;52.850;6.506;2023-07-22T02:39:20;11.80;99.90
55083;DHT22;40978;52.850;6.506;2023-07-22T02:41:47;11.80;99.90
55083;DHT22;40978;52.850;6.506;2023-07-22T02:44:13;11.80;99.90
55083;DHT22;40978;52.850;6.506;2023-07-22T02:46:38;11.80;99.90
55083;DHT22;40978;52.850;6.506;2023-07-22T02:49:04;11.80;99.90
55083;DHT22;40978;52.850;6.506;2023-07-22T02:51:30;11.90;99.90
55083;DHT22;40978;52.850;6.506;2023-07-22T02:53:56;11.90;99.90
55083;DHT22;40978;52.850;6.506;2023-07-22T02:56:22;11.90;99.90
55083;DHT22;40978;52.850;6.506;2023-07-22T02:58:49;11.90;99.90
55083;DHT22;40978;52.850;6.506;2023-07-22T03:01:15;11.90;99.90
55083;DHT22;40978;52.850;6.506;2023-07-22T03:03:41;11.90;99.90
55083;DHT22;40978;52.850;6.506;2023-07-22T03:06:06;11.90;99.90
55083;DHT22;40978;52.850;6.506;2023-07-22T03:08:33;11.80;99.90
55083;DHT22;40978;52.850;6.506;2023-07-22T03:10:59;11.90;99.90
55083;DHT22;40978;52.850;6.506;2023-07-22T03:13:24;11.90;99.90
55083;DHT22;40978;52.850;6.506;2023-07-22T03:15:55;11.90;99.90
55083;DHT22;40978;52.850;6.506;2023-07-22T03:18:21;11.90;99.90
55083;DHT22;40978;52.850;6.506;2023-07-22T03:20:47;12.00;99.90
55083;DHT22;40978;52.850;6.506;2023-07-22T03:23:12;12.00;99.90
55083;DHT22;40978;52.850;6.506;2023-07-22T03:25:38;12.00;99.90
55083;DHT22;40978;52.850;6.506;2023-07-22T03:28:05;12.10;99.90
55083;DHT22;40978;52.850;6.506;2023-07-22T03:30:32;12.10;99.90
55083;DHT22;40978;52.850;6.506;2023-07-22T03:32:59;12.10;99.90
55083;DHT22;40978;52.850;6.506;2023-07-22T03:35:26;12.20;99.90
55083;DHT22;40978;52.850;6.506;2023-07-22T03:37:51;12.20;99.90
55083;DHT22;40978;52.850;6.506;2023-07-22T03:40:17;12.20;99.90
55083;DHT22;40978;52.850;6.506;2023-07-22T03:42:49;12.20;99.90
55083;DHT22;40978;52.850;6.506;2023-07-22T03:45:15;12.30;99.90
55083;DHT22;40978;52.850;6.506;2023-07-22T03:47:41;12.30;99.90
55083;DHT22;40978;52.850;6.506;2023-07-22T03:50:07;12.30;99.90
55083;DHT22;40978;52.850;6.506;2023-07-22T03:52:33;12.40;99.90
55083;DHT22;40978;52.850;6.506;2023-07-22T03:54:59;12.40;99.90
55083;DHT22;40978;52.850;6.506;2023-07-22T03:57:28;12.50;99.90
55083;DHT22;40978;52.850;6.506;2023-07-22T03:59:54;12.50;99.90
55083;DHT22;40978;52.850;6.506;2023-07-22T04:02:20;12.50;99.90
55083;DHT22;40978;52.850;6.506;2023-07-22T04:04:46;12.60;99.90
55083;DHT22;40978;52.850;6.506;2023-07-22T04:07:12;12.60;99.90
55083;DHT22;40978;52.850;6.506;2023-07-22T04:09:38;12.60;99.90
55083;DHT22;40978;52.850;6.506;2023-07-22T04:12:04;12.70;99.90
55083;DHT22;40978;52.850;6.506;2023-07-22T04:14:30;12.70;99.90
55083;DHT22;40978;52.850;6.506;2023-07-22T04:16:56;12.80;99.90
55083;DHT22;40978;52.850;6.506;2023-07-22T04:19:21;12.80;99.90
55083;DHT22;40978;52.850;6.506;2023-07-22T04:21:47;12.90;99.90
55083;DHT22;40978;52.850;6.506;2023-07-22T04:24:13;12.90;99.90
55083;DHT22;40978;52.850;6.506;2023-07-22T04:26:40;12.90;99.90
55083;DHT22;40978;52.850;6.506;2023-07-22T04:29:05;12.90;99.90
55083;DHT22;40978;52.850;6.506;2023-07-22T04:31:33;12.90;99.90
55083;DHT22;40978;52.850;6.506;2023-07-22T04:33:58;13.00;99.90
55083;DHT22;40978;52.850;6.506;2023-07-22T04:36:24;13.00;99.90
55083;DHT22;40978;52.850;6.506;2023-07-22T04:38:50;13.00;99.90
55083;DHT22;40978;52.850;6.506;2023-07-22T04:41:15;13.10;99.90
55083;DHT22;40978;52.850;6.506;2023-07-22T04:43:41;13.10;99.90
55083;DHT22;40978;52.850;6.506;2023-07-22T04:46:07;13.20;99.90
55083;DHT22;40978;52.850;6.506;2023-07-22T04:48:34;13.20;99.90
55083;DHT22;40978;52.850;6.506;2023-07-22T04:51:00;13.20;99.90
55083;DHT22;40978;52.850;6.506;2023-07-22T04:53:26;13.30;99.90
55083;DHT22;40978;52.850;6.506;2023-07-22T04:55:51;13.30;99.90
55083;DHT22;40978;52.850;6.506;2023-07-22T04:58:17;13.30;99.90
55083;DHT22;40978;52.850;6.506;2023-07-22T05:00:43;13.30;99.90
55083;DHT22;40978;52.850;6.506;2023-07-22T05:03:08;13.30;99.90
55083;DHT22;40978;52.850;6.506;2023-07-22T05:05:34;13.30;99.90
55083;DHT22;40978;52.850;6.506;2023-07-22T05:08:01;13.40;99.90
55083;DHT22;40978;52.850;6.506;2023-07-22T05:10:27;13.30;99.90
55083;DHT22;40978;52.850;6.506;2023-07-22T05:12:54;13.30;99.90
55083;DHT22;40978;52.850;6.506;2023-07-22T05:15:20;13.40;99.90
55083;DHT22;40978;52.850;6.506;2023-07-22T05:17:46;13.40;99.90
55083;DHT22;40978;52.850;6.506;2023-07-22T05:20:12;13.40;99.90
55083;DHT22;40978;52.850;6.506;2023-07-22T05:22:40;13.50;99.90
55083;DHT22;40978;52.850;6.506;2023-07-22T05:25:06;13.50;99.90
55083;DHT22;40978;52.850;6.506;2023-07-22T05:27:32;13.50;99.90
55083;DHT22;40978;52.850;6.506;2023-07-22T05:29:58;13.60;99.90
55083;DHT22;40978;52.850;6.506;2023-07-22T05:32:24;13.60;99.90
55083;DHT22;40978;52.850;6.506;2023-07-22T05:34:50;13.60;99.90
55083;DHT22;40978;52.850;6.506;2023-07-22T05:37:15;13.60;99.90
55083;DHT22;40978;52.850;6.506;2023-07-22T05:39:41;13.60;99.90
55083;DHT22;40978;52.850;6.506;2023-07-22T05:42:07;13.60;99.90
55083;DHT22;40978;52.850;6.506;2023-07-22T05:44:32;13.70;99.90
55083;DHT22;40978;52.850;6.506;2023-07-22T05:46:58;13.70;99.90
55083;DHT22;40978;52.850;6.506;2023-07-22T05:49:24;13.70;99.90
55083;DHT22;40978;52.850;6.506;2023-07-22T05:51:50;13.70;99.90
55083;DHT22;40978;52.850;6.506;2023-07-22T05:54:16;13.70;99.90
55083;DHT22;40978;52.850;6.506;2023-07-22T05:56:42;13.80;99.90
55083;DHT22;40978;52.850;6.506;2023-07-22T05:59:08;13.80;99.90
55083;DHT22;40978;52.850;6.506;2023-07-22T06:01:33;13.80;99.90
55083;DHT22;40978;52.850;6.506;2023-07-22T06:04:00;13.90;99.90
55083;DHT22;40978;52.850;6.506;2023-07-22T06:06:26;13.90;99.90
55083;DHT22;40978;52.850;6.506;2023-07-22T06:08:52;14.00;99.90
55083;DHT22;40978;52.850;6.506;2023-07-22T06:11:18;14.10;99.90
55083;DHT22;40978;52.850;6.506;2023-07-22T06:13:43;14.10;99.90
55083;DHT22;40978;52.850;6.506;2023-07-22T06:16:09;14.20;99.90
55083;DHT22;40978;52.850;6.506;2023-07-22T06:18:35;14.30;99.90
55083;DHT22;40978;52.850;6.506;2023-07-22T06:21:00;14.40;99.90
55083;DHT22;40978;52.850;6.506;2023-07-22T06:23:26;14.40;99.90
55083;DHT22;40978;52.850;6.506;2023-07-22T06:25:52;14.60;99.90
55083;DHT22;40978;52.850;6.506;2023-07-22T06:28:18;14.60;99.90
55083;DHT22;40978;52.850;6.506;2023-07-22T06:30:43;14.60;99.90
55083;DHT22;40978;52.850;6.506;2023-07-22T06:33:09;14.70;99.90
55083;DHT22;40978;52.850;6.506;2023-07-22T06:35:35;14.70;99.90
55083;DHT22;40978;52.850;6.506;2023-07-22T06:38:01;14.80;99.90
55083;DHT22;40978;52.850;6.506;2023-07-22T06:40:26;14.90;99.90
55083;DHT22;40978;52.850;6.506;2023-07-22T06:42:52;15.00;99.90
55083;DHT22;40978;52.850;6.506;2023-07-22T06:45:18;15.10;99.90
55083;DHT22;40978;52.850;6.506;2023-07-22T06:47:44;15.20;99.90
55083;DHT22;40978;52.850;6.506;2023-07-22T06:50:10;15.30;99.90
55083;DHT22;40978;52.850;6.506;2023-07-22T06:52:36;15.30;99.90
55083;DHT22;40978;52.850;6.506;2023-07-22T06:55:02;15.50;99.90
55083;DHT22;40978;52.850;6.506;2023-07-22T06:57:29;15.60;99.90
55083;DHT22;40978;52.850;6.506;2023-07-22T06:59:54;15.60;99.90
55083;DHT22;40978;52.850;6.506;2023-07-22T07:02:20;15.70;99.90
55083;DHT22;40978;52.850;6.506;2023-07-22T07:04:46;15.80;99.90
55083;DHT22;40978;52.850;6.506;2023-07-22T07:07:13;15.80;99.90
55083;DHT22;40978;52.850;6.506;2023-07-22T07:09:39;15.90;99.90
55083;DHT22;40978;52.850;6.506;2023-07-22T07:12:06;16.00;99.90
55083;DHT22;40978;52.850;6.506;2023-07-22T07:14:35;16.10;99.90
55083;DHT22;40978;52.850;6.506;2023-07-22T07:17:01;16.20;99.90
55083;DHT22;40978;52.850;6.506;2023-07-22T07:19:28;16.20;99.90
55083;DHT22;40978;52.850;6.506;2023-07-22T07:21:53;16.30;99.90
55083;DHT22;40978;52.850;6.506;2023-07-22T07:24:19;16.30;99.90
55083;DHT22;40978;52.850;6.506;2023-07-22T07:26:45;16.40;99.90
55083;DHT22;40978;52.850;6.506;2023-07-22T07:29:11;16.50;99.90
55083;DHT22;40978;52.850;6.506;2023-07-22T07:31:37;16.50;99.90
55083;DHT22;40978;52.850;6.506;2023-07-22T07:34:03;16.60;99.90
55083;DHT22;40978;52.850;6.506;2023-07-22T07:36:29;16.60;99.90
55083;DHT22;40978;52.850;6.506;2023-07-22T07:38:55;16.70;99.90
55083;DHT22;40978;52.850;6.506;2023-07-22T07:41:21;16.80;99.90
55083;DHT22;40978;52.850;6.506;2023-07-22T07:43:47;16.90;99.90
55083;DHT22;40978;52.850;6.506;2023-07-22T07:46:20;17.00;99.90
55083;DHT22;40978;52.850;6.506;2023-07-22T07:48:49;17.20;99.90
55083;DHT22;40978;52.850;6.506;2023-07-22T07:51:16;17.40;99.90
55083;DHT22;40978;52.850;6.506;2023-07-22T07:53:43;17.50;99.90
55083;DHT22;40978;52.850;6.506;2023-07-22T07:56:10;17.60;99.90
55083;DHT22;40978;52.850;6.506;2023-07-22T07:58:36;17.80;99.90
55083;DHT22;40978;52.850;6.506;2023-07-22T08:01:02;17.90;99.90
55083;DHT22;40978;52.850;6.506;2023-07-22T08:03:28;17.90;99.90
55083;DHT22;40978;52.850;6.506;2023-07-22T08:05:55;17.90;99.90
55083;DHT22;40978;52.850;6.506;2023-07-22T08:08:21;17.90;99.90
55083;DHT22;40978;52.850;6.506;2023-07-22T08:10:47;18.00;99.90
55083;DHT22;40978;52.850;6.506;2023-07-22T08:13:14;18.00;99.90
55083;DHT22;40978;52.850;6.506;2023-07-22T08:15:40;18.10;99.90
55083;DHT22;40978;52.850;6.506;2023-07-22T08:18:07;18.10;99.90
55083;DHT22;40978;52.850;6.506;2023-07-22T08:20:33;18.20;99.90
55083;DHT22;40978;52.850;6.506;2023-07-22T08:22:58;18.20;99.90
55083;DHT22;40978;52.850;6.506;2023-07-22T08:25:24;18.20;99.90
55083;DHT22;40978;52.850;6.506;2023-07-22T08:27:50;18.20;99.90
55083;DHT22;40978;52.850;6.506;2023-07-22T08:30:15;18.10;99.90
55083;DHT22;40978;52.850;6.506;2023-07-22T08:32:41;18.20;99.90
55083;DHT22;40978;52.850;6.506;2023-07-22T08:35:07;18.20;99.90
55083;DHT22;40978;52.850;6.506;2023-07-22T08:37:33;18.30;99.90
55083;DHT22;40978;52.850;6.506;2023-07-22T08:39:58;18.30;99.90
55083;DHT22;40978;52.850;6.506;2023-07-22T08:42:25;18.40;99.90
55083;DHT22;40978;52.850;6.506;2023-07-22T08:44:56;18.40;99.90
55083;DHT22;40978;52.850;6.506;2023-07-22T08:47:24;18.40;99.90
55083;DHT22;40978;52.850;6.506;2023-07-22T08:49:53;18.30;99.90
55083;DHT22;40978;52.850;6.506;2023-07-22T08:52:19;18.20;99.90
55083;DHT22;40978;52.850;6.506;2023-07-22T08:54:46;18.10;99.90
55083;DHT22;40978;52.850;6.506;2023-07-22T08:57:12;18.00;99.90
55083;DHT22;40978;52.850;6.506;2023-07-22T08:59:38;17.90;99.90
55083;DHT22;40978;52.850;6.506;2023-07-22T09:02:05;17.80;99.90
55083;DHT22;40978;52.850;6.506;2023-07-22T09:04:35;17.60;99.90
55083;DHT22;40978;52.850;6.506;2023-07-22T09:07:01;17.50;99.90
55083;DHT22;40978;52.850;6.506;2023-07-22T09:09:27;17.40;99.90
55083;DHT22;40978;52.850;6.506;2023-07-22T09:11:53;17.30;99.90
55083;DHT22;40978;52.850;6.506;2023-07-22T09:14:20;17.20;99.90
55083;DHT22;40978;52.850;6.506;2023-07-22T09:16:46;17.20;99.90
55083;DHT22;40978;52.850;6.506;2023-07-22T09:19:12;17.20;99.90
55083;DHT22;40978;52.850;6.506;2023-07-22T09:21:38;17.20;99.90
55083;DHT22;40978;52.850;6.506;2023-07-22T09:24:26;17.20;99.90
55083;DHT22;40978;52.850;6.506;2023-07-22T09:26:53;17.20;99.90
55083;DHT22;40978;52.850;6.506;2023-07-22T09:29:33;17.30;99.90
55083;DHT22;40978;52.850;6.506;2023-07-22T09:31:59;17.30;99.90
55083;DHT22;40978;52.850;6.506;2023-07-22T09:34:25;17.30;99.90
55083;DHT22;40978;52.850;6.506;2023-07-22T09:36:56;17.30;99.90
55083;DHT22;40978;52.850;6.506;2023-07-22T09:39:23;17.40;99.90
55083;DHT22;40978;52.850;6.506;2023-07-22T09:41:49;17.40;99.90
55083;DHT22;40978;52.850;6.506;2023-07-22T09:44:15;17.40;99.90
55083;DHT22;40978;52.850;6.506;2023-07-22T09:46:49;17.50;99.90
55083;DHT22;40978;52.850;6.506;2023-07-22T09:49:16;17.50;99.90
55083;DHT22;40978;52.850;6.506;2023-07-22T09:51:42;17.60;99.90
55083;DHT22;40978;52.850;6.506;2023-07-22T09:54:08;17.60;99.90
55083;DHT22;40978;52.850;6.506;2023-07-22T09:56:48;17.70;99.90
55083;DHT22;40978;52.850;6.506;2023-07-22T09:59:14;17.80;99.90
55083;DHT22;40978;52.850;6.506;2023-07-22T10:01:43;17.90;99.90
55083;DHT22;40978;52.850;6.506;2023-07-22T10:04:12;17.90;99.90
55083;DHT22;40978;52.850;6.506;2023-07-22T10:06:42;18.00;99.90
55083;DHT22;40978;52.850;6.506;2023-07-22T10:09:11;18.00;99.90
55083;DHT22;40978;52.850;6.506;2023-07-22T10:11:37;17.90;99.90
55083;DHT22;40978;52.850;6.506;2023-07-22T10:14:03;17.80;99.90
55083;DHT22;40978;52.850;6.506;2023-07-22T10:16:30;17.70;99.90
55083;DHT22;40978;52.850;6.506;2023-07-22T10:18:56;17.70;99.90
55083;DHT22;40978;52.850;6.506;2023-07-22T10:21:24;17.60;99.90
55083;DHT22;40978;52.850;6.506;2023-07-22T10:23:51;17.40;99.90
55083;DHT22;40978;52.850;6.506;2023-07-22T10:26:18;17.20;99.90
55083;DHT22;40978;52.850;6.506;2023-07-22T10:28:45;17.10;99.90
55083;DHT22;40978;52.850;6.506;2023-07-22T10:31:13;17.10;99.90
55083;DHT22;40978;52.850;6.506;2023-07-22T10:33:39;17.10;99.90
55083;DHT22;40978;52.850;6.506;2023-07-22T10:36:12;17.10;99.90
55083;DHT22;40978;52.850;6.506;2023-07-22T10:38:38;17.10;99.90
55083;DHT22;40978;52.850;6.506;2023-07-22T10:41:16;17.10;99.90
55083;DHT22;40978;52.850;6.506;2023-07-22T10:43:53;17.00;99.90
55083;DHT22;40978;52.850;6.506;2023-07-22T10:46:34;17.00;99.90
55083;DHT22;40978;52.850;6.506;2023-07-22T10:49:11;17.00;99.90
55083;DHT22;40978;52.850;6.506;2023-07-22T10:51:41;16.90;99.90
55083;DHT22;40978;52.850;6.506;2023-07-22T10:54:13;16.80;99.90
55083;DHT22;40978;52.850;6.506;2023-07-22T10:56:43;16.80;99.90
55083;DHT22;40978;52.850;6.506;2023-07-22T10:59:11;16.70;99.90
55083;DHT22;40978;52.850;6.506;2023-07-22T11:01:43;16.70;99.90
55083;DHT22;40978;52.850;6.506;2023-07-22T11:04:24;16.60;99.90
55083;DHT22;40978;52.850;6.506;2023-07-22T11:06:58;16.60;99.90
55083;DHT22;40978;52.850;6.506;2023-07-22T11:12:11;16.40;99.90
55083;DHT22;40978;52.850;6.506;2023-07-22T11:14:46;16.10;99.90
55083;DHT22;40978;52.850;6.506;2023-07-22T11:17:12;15.80;99.90
55083;DHT22;40978;52.850;6.506;2023-07-22T11:19:39;15.70;99.90
55083;DHT22;40978;52.850;6.506;2023-07-22T11:22:06;15.60;99.90
55083;DHT22;40978;52.850;6.506;2023-07-22T11:24:35;15.40;99.90
55083;DHT22;40978;52.850;6.506;2023-07-22T11:27:05;15.40;99.90
55083;DHT22;40978;52.850;6.506;2023-07-22T11:29:31;15.40;99.90
55083;DHT22;40978;52.850;6.506;2023-07-22T11:31:57;15.30;99.90
55083;DHT22;40978;52.850;6.506;2023-07-22T11:34:24;15.40;99.90
55083;DHT22;40978;52.850;6.506;2023-07-22T11:36:51;15.40;99.90
55083;DHT22;40978;52.850;6.506;2023-07-22T11:39:19;15.40;99.90
55083;DHT22;40978;52.850;6.506;2023-07-22T11:41:46;15.40;99.90
55083;DHT22;40978;52.850;6.506;2023-07-22T11:44:15;15.40;99.90
55083;DHT22;40978;52.850;6.506;2023-07-22T11:49:12;15.60;99.90
55083;DHT22;40978;52.850;6.506;2023-07-22T11:51:42;15.60;99.90
55083;DHT22;40978;52.850;6.506;2023-07-22T11:54:08;15.50;99.90
55083;DHT22;40978;52.850;6.506;2023-07-22T11:56:35;15.60;99.90
55083;DHT22;40978;52.850;6.506;2023-07-22T11:59:01;15.60;99.90
55083;DHT22;40978;52.850;6.506;2023-07-22T12:01:32;15.60;99.90
55083;DHT22;40978;52.850;6.506;2023-07-22T12:03:58;15.70;99.90
55083;DHT22;40978;52.850;6.506;2023-07-22T12:06:27;15.70;99.90
55083;DHT22;40978;52.850;6.506;2023-07-22T12:08:53;15.70;99.90
55083;DHT22;40978;52.850;6.506;2023-07-22T12:11:23;15.60;99.90
55083;DHT22;40978;52.850;6.506;2023-07-22T12:16:31;15.60;99.90
55083;DHT22;40978;52.850;6.506;2023-07-22T12:19:01;15.60;99.90
55083;DHT22;40978;52.850;6.506;2023-07-22T12:21:27;15.60;99.90
55083;DHT22;40978;52.850;6.506;2023-07-22T12:23:53;15.70;99.90
55083;DHT22;40978;52.850;6.506;2023-07-22T12:26:19;15.70;99.90
55083;DHT22;40978;52.850;6.506;2023-07-22T12:28:45;15.80;99.90
55083;DHT22;40978;52.850;6.506;2023-07-22T12:31:11;15.80;99.90
55083;DHT22;40978;52.850;6.506;2023-07-22T12:33:37;15.80;99.90
55083;DHT22;40978;52.850;6.506;2023-07-22T12:36:02;15.90;99.90
55083;DHT22;40978;52.850;6.506;2023-07-22T12:38:28;15.90;99.90
55083;DHT22;40978;52.850;6.506;2023-07-22T12:40:54;15.90;99.90
55083;DHT22;40978;52.850;6.506;2023-07-22T12:43:20;15.90;99.90
55083;DHT22;40978;52.850;6.506;2023-07-22T12:45:45;16.00;99.90
55083;DHT22;40978;52.850;6.506;2023-07-22T12:48:11;16.00;99.90
55083;DHT22;40978;52.850;6.506;2023-07-22T12:50:37;16.00;99.90
55083;DHT22;40978;52.850;6.506;2023-07-22T12:53:03;16.00;99.90
55083;DHT22;40978;52.850;6.506;2023-07-22T12:55:29;16.00;99.90
55083;DHT22;40978;52.850;6.506;2023-07-22T12:57:55;16.00;99.90
55083;DHT22;40978;52.850;6.506;2023-07-22T13:00:21;15.90;99.90
55083;DHT22;40978;52.850;6.506;2023-07-22T13:02:47;15.90;99.90
55083;DHT22;40978;52.850;6.506;2023-07-22T13:05:13;15.80;99.90
55083;DHT22;40978;52.850;6.506;2023-07-22T13:07:39;15.80;99.90
55083;DHT22;40978;52.850;6.506;2023-07-22T13:10:06;15.70;99.90
55083;DHT22;40978;52.850;6.506;2023-07-22T13:12:37;15.70;99.90
55083;DHT22;40978;52.850;6.506;2023-07-22T13:15:04;15.60;99.90
55083;DHT22;40978;52.850;6.506;2023-07-22T13:17:30;15.60;99.90
55083;DHT22;40978;52.850;6.506;2023-07-22T13:19:56;15.60;99.90
55083;DHT22;40978;52.850;6.506;2023-07-22T13:22:22;15.60;99.90
55083;DHT22;40978;52.850;6.506;2023-07-22T13:24:48;15.70;99.90
55083;DHT22;40978;52.850;6.506;2023-07-22T13:27:13;15.60;99.90
55083;DHT22;40978;52.850;6.506;2023-07-22T13:29:39;15.70;99.90
55083;DHT22;40978;52.850;6.506;2023-07-22T13:32:05;15.80;99.90
55083;DHT22;40978;52.850;6.506;2023-07-22T13:34:31;15.90;99.90
55083;DHT22;40978;52.850;6.506;2023-07-22T13:36:57;16.00;99.90
55083;DHT22;40978;52.850;6.506;2023-07-22T13:39:23;16.00;99.90
55083;DHT22;40978;52.850;6.506;2023-07-22T13:41:49;16.10;99.90
55083;DHT22;40978;52.850;6.506;2023-07-22T13:44:16;16.10;99.90
55083;DHT22;40978;52.850;6.506;2023-07-22T13:46:42;16.30;99.90
55083;DHT22;40978;52.850;6.506;2023-07-22T13:49:07;16.40;99.90
55083;DHT22;40978;52.850;6.506;2023-07-22T13:51:33;16.40;99.90
55083;DHT22;40978;52.850;6.506;2023-07-22T13:53:59;16.50;99.90
55083;DHT22;40978;52.850;6.506;2023-07-22T13:56:25;16.70;99.90
55083;DHT22;40978;52.850;6.506;2023-07-22T13:58:51;16.80;99.90
55083;DHT22;40978;52.850;6.506;2023-07-22T14:01:17;16.90;99.90
55083;DHT22;40978;52.850;6.506;2023-07-22T14:03:43;17.00;99.90
55083;DHT22;40978;52.850;6.506;2023-07-22T14:06:09;17.00;99.90
55083;DHT22;40978;52.850;6.506;2023-07-22T14:08:34;17.10;99.90
55083;DHT22;40978;52.850;6.506;2023-07-22T14:11:00;17.20;99.90
55083;DHT22;40978;52.850;6.506;2023-07-22T14:13:26;17.30;99.90
55083;DHT22;40978;52.850;6.506;2023-07-22T14:15:52;17.30;99.90
55083;DHT22;40978;52.850;6.506;2023-07-22T14:18:18;17.30;99.90
55083;DHT22;40978;52.850;6.506;2023-07-22T14:20:44;17.30;99.90
55083;DHT22;40978;52.850;6.506;2023-07-22T14:23:11;17.30;99.90
55083;DHT22;40978;52.850;6.506;2023-07-22T14:25:37;17.20;99.90
55083;DHT22;40978;52.850;6.506;2023-07-22T14:28:03;17.20;99.90
55083;DHT22;40978;52.850;6.506;2023-07-22T14:30:29;17.20;99.90
55083;DHT22;40978;52.850;6.506;2023-07-22T14:32:54;17.30;99.90
55083;DHT22;40978;52.850;6.506;2023-07-22T14:35:21;17.40;99.90
55083;DHT22;40978;52.850;6.506;2023-07-22T14:37:47;17.40;99.90
55083;DHT22;40978;52.850;6.506;2023-07-22T14:40:13;17.30;99.90
55083;DHT22;40978;52.850;6.506;2023-07-22T14:42:38;17.30;99.90
55083;DHT22;40978;52.850;6.506;2023-07-22T14:45:05;17.20;99.90
55083;DHT22;40978;52.850;6.506;2023-07-22T14:47:31;17.10;99.90
55083;DHT22;40978;52.850;6.506;2023-07-22T14:49:57;17.10;99.90
55083;DHT22;40978;52.850;6.506;2023-07-22T14:52:23;17.00;99.90
55083;DHT22;40978;52.850;6.506;2023-07-22T14:54:49;16.90;99.90
55083;DHT22;40978;52.850;6.506;2023-07-22T14:57:18;16.80;99.90
55083;DHT22;40978;52.850;6.506;2023-07-22T14:59:43;16.80;99.90
55083;DHT22;40978;52.850;6.506;2023-07-22T15:02:09;16.70;99.90
55083;DHT22;40978;52.850;6.506;2023-07-22T15:04:36;16.60;99.90
55083;DHT22;40978;52.850;6.506;2023-07-22T15:07:02;16.50;99.90
55083;DHT22;40978;52.850;6.506;2023-07-22T15:09:30;16.40;99.90
55083;DHT22;40978;52.850;6.506;2023-07-22T15:11:56;16.30;99.90
55083;DHT22;40978;52.850;6.506;2023-07-22T15:14:21;16.30;99.90
55083;DHT22;40978;52.850;6.506;2023-07-22T15:16:47;16.20;99.90
55083;DHT22;40978;52.850;6.506;2023-07-22T15:19:13;16.20;99.90
55083;DHT22;40978;52.850;6.506;2023-07-22T15:21:39;16.10;99.90
55083;DHT22;40978;52.850;6.506;2023-07-22T15:24:05;16.10;99.90
55083;DHT22;40978;52.850;6.506;2023-07-22T15:26:31;16.10;99.90
55083;DHT22;40978;52.850;6.506;2023-07-22T15:28:56;16.10;99.90
55083;DHT22;40978;52.850;6.506;2023-07-22T15:31:22;16.10;99.90
55083;DHT22;40978;52.850;6.506;2023-07-22T15:33:49;16.20;99.90